sensor_id;sensor_type;location;lat;lon;timestamp;P1;durP1;ratioP1;P2;durP2;ratioP2
47778;SDS011;33538;48.432;11.350;2023-08-20T00:01:06;5.25;;;2.90;;
47778;SDS011;33538;48.432;11.350;2023-08-20T00:03:35;5.15;;;2.90;;
47778;SDS011;33538;48.432;11.350;2023-08-20T00:06:02;9.55;;;3.55;;
47778;SDS011;33538;48.432;11.350;2023-08-20T00:08:30;5.68;;;2.95;;
47778;SDS011;33538;48.432;11.350;2023-08-20T00:10:56;5.68;;;3.30;;
47778;SDS011;33538;48.432;11.350;2023-08-20T00:13:25;5.18;;;3.63;;
47778;SDS011;33538;48.432;11.350;2023-08-20T00:15:51;8.65;;;3.95;;
47778;SDS011;33538;48.432;11.350;2023-08-20T00:18:19;4.90;;;3.15;;
47778;SDS011;33538;48.432;11.350;2023-08-20T00:20:46;3.75;;;2.60;;
47778;SDS011;33538;48.432;11.350;2023-08-20T00:23:13;7.18;;;3.13;;
47778;SDS011;33538;48.432;11.350;2023-08-20T00:25:41;4.85;;;2.88;;
47778;SDS011;33538;48.432;11.350;2023-08-20T00:28:08;7.10;;;2.85;;
47778;SDS011;33538;48.432;11.350;2023-08-20T00:30:36;5.13;;;2.83;;
47778;SDS011;33538;48.432;11.350;2023-08-20T00:33:03;5.47;;;2.65;;
47778;SDS011;33538;48.432;11.350;2023-08-20T00:35:30;5.97;;;2.92;;
47778;SDS011;33538;48.432;11.350;2023-08-20T00:37:57;5.40;;;2.78;;
47778;SDS011;33538;48.432;11.350;2023-08-20T00:40:23;6.38;;;3.28;;
47778;SDS011;33538;48.432;11.350;2023-08-20T00:42:50;6.63;;;3.28;;
47778;SDS011;33538;48.432;11.350;2023-08-20T00:45:17;5.25;;;2.80;;
47778;SDS011;33538;48.432;11.350;2023-08-20T00:47:45;6.38;;;3.13;;
47778;SDS011;33538;48.432;11.350;2023-08-20T00:50:12;5.50;;;3.15;;
47778;SDS011;33538;48.432;11.350;2023-08-20T00:52:39;7.50;;;3.00;;
47778;SDS011;33538;48.432;11.350;2023-08-20T00:55:07;4.75;;;2.97;;
47778;SDS011;33538;48.432;11.350;2023-08-20T00:57:35;6.60;;;3.00;;
47778;SDS011;33538;48.432;11.350;2023-08-20T01:00:03;4.85;;;3.10;;
47778;SDS011;33538;48.432;11.350;2023-08-20T01:02:30;7.10;;;3.03;;
47778;SDS011;33538;48.432;11.350;2023-08-20T01:04:58;9.73;;;3.13;;
47778;SDS011;33538;48.432;11.350;2023-08-20T01:07:27;3.47;;;3.00;;
47778;SDS011;33538;48.432;11.350;2023-08-20T01:10:03;4.47;;;3.20;;
47778;SDS011;33538;48.432;11.350;2023-08-20T01:12:38;9.02;;;3.42;;
47778;SDS011;33538;48.432;11.350;2023-08-20T01:15:06;4.47;;;2.92;;
47778;SDS011;33538;48.432;11.350;2023-08-20T01:17:33;4.55;;;3.58;;
47778;SDS011;33538;48.432;11.350;2023-08-20T01:20:02;6.57;;;3.05;;
47778;SDS011;33538;48.432;11.350;2023-08-20T01:25:39;5.82;;;3.10;;
47778;SDS011;33538;48.432;11.350;2023-08-20T01:28:22;5.15;;;3.03;;
47778;SDS011;33538;48.432;11.350;2023-08-20T01:30:51;4.18;;;3.42;;
47778;SDS011;33538;48.432;11.350;2023-08-20T01:33:20;4.70;;;3.10;;
47778;SDS011;33538;48.432;11.350;2023-08-20T01:35:47;4.47;;;2.80;;
47778;SDS011;33538;48.432;11.350;2023-08-20T01:38:14;5.88;;;3.00;;
47778;SDS011;33538;48.432;11.350;2023-08-20T01:40:41;7.75;;;3.55;;
47778;SDS011;33538;48.432;11.350;2023-08-20T01:43:07;4.90;;;2.97;;
47778;SDS011;33538;48.432;11.350;2023-08-20T01:45:36;4.20;;;2.85;;
47778;SDS011;33538;48.432;11.350;2023-08-20T01:48:02;3.63;;;2.67;;
47778;SDS011;33538;48.432;11.350;2023-08-20T01:50:30;3.38;;;2.83;;
47778;SDS011;33538;48.432;11.350;2023-08-20T01:52:57;7.32;;;2.53;;
47778;SDS011;33538;48.432;11.350;2023-08-20T01:55:24;6.40;;;3.17;;
47778;SDS011;33538;48.432;11.350;2023-08-20T01:57:51;5.20;;;3.08;;
47778;SDS011;33538;48.432;11.350;2023-08-20T02:00:18;3.67;;;2.80;;
47778;SDS011;33538;48.432;11.350;2023-08-20T02:02:46;4.65;;;2.67;;
47778;SDS011;33538;48.432;11.350;2023-08-20T02:05:13;3.42;;;2.60;;
47778;SDS011;33538;48.432;11.350;2023-08-20T02:07:40;4.03;;;2.45;;
47778;SDS011;33538;48.432;11.350;2023-08-20T02:10:07;4.57;;;2.85;;
47778;SDS011;33538;48.432;11.350;2023-08-20T02:12:34;4.47;;;2.78;;
47778;SDS011;33538;48.432;11.350;2023-08-20T02:15:01;4.68;;;2.85;;
47778;SDS011;33538;48.432;11.350;2023-08-20T02:17:28;4.00;;;2.67;;
47778;SDS011;33538;48.432;11.350;2023-08-20T02:19:56;4.22;;;2.95;;
47778;SDS011;33538;48.432;11.350;2023-08-20T02:22:23;6.90;;;3.10;;
47778;SDS011;33538;48.432;11.350;2023-08-20T02:24:50;3.70;;;3.28;;
47778;SDS011;33538;48.432;11.350;2023-08-20T02:27:16;3.97;;;3.15;;
47778;SDS011;33538;48.432;11.350;2023-08-20T02:29:43;5.75;;;3.08;;
47778;SDS011;33538;48.432;11.350;2023-08-20T02:32:10;5.40;;;2.92;;
47778;SDS011;33538;48.432;11.350;2023-08-20T02:34:37;6.40;;;3.20;;
47778;SDS011;33538;48.432;11.350;2023-08-20T02:37:05;4.60;;;2.78;;
47778;SDS011;33538;48.432;11.350;2023-08-20T02:39:32;5.82;;;2.70;;
47778;SDS011;33538;48.432;11.350;2023-08-20T02:41:59;4.88;;;3.55;;
47778;SDS011;33538;48.432;11.350;2023-08-20T02:44:25;4.80;;;3.60;;
47778;SDS011;33538;48.432;11.350;2023-08-20T02:46:52;6.28;;;3.58;;
47778;SDS011;33538;48.432;11.350;2023-08-20T02:49:19;7.10;;;3.80;;
47778;SDS011;33538;48.432;11.350;2023-08-20T02:51:46;5.80;;;3.50;;
47778;SDS011;33538;48.432;11.350;2023-08-20T02:54:14;4.72;;;3.38;;
47778;SDS011;33538;48.432;11.350;2023-08-20T02:56:41;4.03;;;2.90;;
47778;SDS011;33538;48.432;11.350;2023-08-20T02:59:08;3.92;;;2.70;;
47778;SDS011;33538;48.432;11.350;2023-08-20T03:01:35;4.78;;;3.42;;
47778;SDS011;33538;48.432;11.350;2023-08-20T03:04:01;5.75;;;3.28;;
47778;SDS011;33538;48.432;11.350;2023-08-20T03:06:28;7.03;;;3.72;;
47778;SDS011;33538;48.432;11.350;2023-08-20T03:08:55;5.75;;;3.60;;
47778;SDS011;33538;48.432;11.350;2023-08-20T03:11:23;7.30;;;4.00;;
47778;SDS011;33538;48.432;11.350;2023-08-20T03:13:50;6.18;;;3.85;;
47778;SDS011;33538;48.432;11.350;2023-08-20T03:16:17;5.22;;;3.60;;
47778;SDS011;33538;48.432;11.350;2023-08-20T03:18:44;6.68;;;4.18;;
47778;SDS011;33538;48.432;11.350;2023-08-20T03:21:10;7.65;;;3.78;;
47778;SDS011;33538;48.432;11.350;2023-08-20T03:23:38;6.00;;;3.75;;
47778;SDS011;33538;48.432;11.350;2023-08-20T03:26:05;7.07;;;4.03;;
47778;SDS011;33538;48.432;11.350;2023-08-20T03:28:33;6.22;;;3.42;;
47778;SDS011;33538;48.432;11.350;2023-08-20T03:31:00;6.78;;;3.55;;
47778;SDS011;33538;48.432;11.350;2023-08-20T03:33:27;4.40;;;3.47;;
47778;SDS011;33538;48.432;11.350;2023-08-20T03:35:54;7.72;;;3.92;;
47778;SDS011;33538;48.432;11.350;2023-08-20T03:38:25;7.57;;;4.00;;
47778;SDS011;33538;48.432;11.350;2023-08-20T03:40:51;5.13;;;3.75;;
47778;SDS011;33538;48.432;11.350;2023-08-20T03:43:20;6.05;;;3.97;;
47778;SDS011;33538;48.432;11.350;2023-08-20T03:45:50;7.93;;;3.35;;
47778;SDS011;33538;48.432;11.350;2023-08-20T03:48:18;4.43;;;3.40;;
47778;SDS011;33538;48.432;11.350;2023-08-20T03:50:45;4.30;;;3.55;;
47778;SDS011;33538;48.432;11.350;2023-08-20T03:53:11;6.80;;;4.10;;
47778;SDS011;33538;48.432;11.350;2023-08-20T03:55:38;4.97;;;3.50;;
47778;SDS011;33538;48.432;11.350;2023-08-20T03:58:05;6.22;;;3.22;;
47778;SDS011;33538;48.432;11.350;2023-08-20T04:00:34;6.78;;;3.75;;
47778;SDS011;33538;48.432;11.350;2023-08-20T04:03:02;5.13;;;3.40;;
47778;SDS011;33538;48.432;11.350;2023-08-20T04:05:34;6.22;;;3.45;;
47778;SDS011;33538;48.432;11.350;2023-08-20T04:08:02;4.82;;;3.25;;
47778;SDS011;33538;48.432;11.350;2023-08-20T04:10:29;5.47;;;3.22;;
47778;SDS011;33538;48.432;11.350;2023-08-20T04:12:56;5.00;;;3.30;;
47778;SDS011;33538;48.432;11.350;2023-08-20T04:15:23;11.75;;;4.25;;
47778;SDS011;33538;48.432;11.350;2023-08-20T04:17:50;4.20;;;3.00;;
47778;SDS011;33538;48.432;11.350;2023-08-20T04:20:18;5.47;;;3.28;;
47778;SDS011;33538;48.432;11.350;2023-08-20T04:22:45;5.63;;;3.70;;
47778;SDS011;33538;48.432;11.350;2023-08-20T04:25:12;4.82;;;2.90;;
47778;SDS011;33538;48.432;11.350;2023-08-20T04:27:38;5.28;;;3.40;;
47778;SDS011;33538;48.432;11.350;2023-08-20T04:30:06;7.05;;;4.00;;
47778;SDS011;33538;48.432;11.350;2023-08-20T04:32:33;6.00;;;3.80;;
47778;SDS011;33538;48.432;11.350;2023-08-20T04:35:00;13.23;;;3.72;;
47778;SDS011;33538;48.432;11.350;2023-08-20T04:37:29;6.45;;;3.60;;
47778;SDS011;33538;48.432;11.350;2023-08-20T04:39:55;6.10;;;3.50;;
47778;SDS011;33538;48.432;11.350;2023-08-20T04:42:22;5.32;;;3.78;;
47778;SDS011;33538;48.432;11.350;2023-08-20T04:44:49;6.15;;;3.42;;
47778;SDS011;33538;48.432;11.350;2023-08-20T04:47:16;5.18;;;3.05;;
47778;SDS011;33538;48.432;11.350;2023-08-20T04:49:42;5.20;;;3.53;;
47778;SDS011;33538;48.432;11.350;2023-08-20T04:52:09;5.28;;;3.53;;
47778;SDS011;33538;48.432;11.350;2023-08-20T04:54:38;9.48;;;3.55;;
47778;SDS011;33538;48.432;11.350;2023-08-20T04:57:04;16.77;;;5.97;;
47778;SDS011;33538;48.432;11.350;2023-08-20T04:59:31;5.43;;;3.40;;
47778;SDS011;33538;48.432;11.350;2023-08-20T05:01:58;7.25;;;3.33;;
47778;SDS011;33538;48.432;11.350;2023-08-20T05:04:25;7.03;;;3.42;;
47778;SDS011;33538;48.432;11.350;2023-08-20T05:06:51;5.65;;;3.17;;
47778;SDS011;33538;48.432;11.350;2023-08-20T05:09:18;3.67;;;3.05;;
47778;SDS011;33538;48.432;11.350;2023-08-20T05:11:46;5.00;;;3.17;;
47778;SDS011;33538;48.432;11.350;2023-08-20T05:14:13;7.30;;;3.22;;
47778;SDS011;33538;48.432;11.350;2023-08-20T05:16:40;9.13;;;3.13;;
47778;SDS011;33538;48.432;11.350;2023-08-20T05:19:07;4.20;;;2.70;;
47778;SDS011;33538;48.432;11.350;2023-08-20T05:21:33;4.57;;;2.78;;
47778;SDS011;33538;48.432;11.350;2023-08-20T05:24:00;5.25;;;2.88;;
47778;SDS011;33538;48.432;11.350;2023-08-20T05:26:27;4.80;;;3.05;;
47778;SDS011;33538;48.432;11.350;2023-08-20T05:28:55;4.18;;;3.10;;
47778;SDS011;33538;48.432;11.350;2023-08-20T05:31:22;7.38;;;3.40;;
47778;SDS011;33538;48.432;11.350;2023-08-20T05:33:49;5.88;;;3.50;;
47778;SDS011;33538;48.432;11.350;2023-08-20T05:36:16;7.10;;;3.28;;
47778;SDS011;33538;48.432;11.350;2023-08-20T05:38:42;5.75;;;3.33;;
47778;SDS011;33538;48.432;11.350;2023-08-20T05:41:09;3.60;;;2.92;;
47778;SDS011;33538;48.432;11.350;2023-08-20T05:43:36;5.60;;;3.25;;
47778;SDS011;33538;48.432;11.350;2023-08-20T05:46:04;4.75;;;3.40;;
47778;SDS011;33538;48.432;11.350;2023-08-20T05:48:31;4.40;;;3.08;;
47778;SDS011;33538;48.432;11.350;2023-08-20T05:50:58;3.45;;;2.80;;
47778;SDS011;33538;48.432;11.350;2023-08-20T05:53:25;7.80;;;3.67;;
47778;SDS011;33538;48.432;11.350;2023-08-20T05:55:51;6.13;;;3.85;;
47778;SDS011;33538;48.432;11.350;2023-08-20T05:58:18;4.40;;;3.50;;
47778;SDS011;33538;48.432;11.350;2023-08-20T06:00:45;7.13;;;4.22;;
47778;SDS011;33538;48.432;11.350;2023-08-20T06:03:13;6.40;;;3.47;;
47778;SDS011;33538;48.432;11.350;2023-08-20T06:05:40;8.82;;;4.05;;
47778;SDS011;33538;48.432;11.350;2023-08-20T06:08:07;6.00;;;3.72;;
47778;SDS011;33538;48.432;11.350;2023-08-20T06:10:34;7.68;;;4.85;;
47778;SDS011;33538;48.432;11.350;2023-08-20T06:13:00;7.18;;;4.82;;
47778;SDS011;33538;48.432;11.350;2023-08-20T06:15:27;9.73;;;5.18;;
47778;SDS011;33538;48.432;11.350;2023-08-20T06:17:54;7.40;;;4.63;;
47778;SDS011;33538;48.432;11.350;2023-08-20T06:20:22;6.53;;;4.22;;
47778;SDS011;33538;48.432;11.350;2023-08-20T06:22:49;9.80;;;4.55;;
47778;SDS011;33538;48.432;11.350;2023-08-20T06:25:16;8.45;;;4.53;;
47778;SDS011;33538;48.432;11.350;2023-08-20T06:27:43;7.30;;;4.50;;
47778;SDS011;33538;48.432;11.350;2023-08-20T06:30:11;8.85;;;4.13;;
47778;SDS011;33538;48.432;11.350;2023-08-20T06:32:38;7.97;;;4.22;;
47778;SDS011;33538;48.432;11.350;2023-08-20T06:35:05;7.10;;;4.47;;
47778;SDS011;33538;48.432;11.350;2023-08-20T06:37:34;6.72;;;3.97;;
47778;SDS011;33538;48.432;11.350;2023-08-20T06:40:01;7.18;;;4.45;;
47778;SDS011;33538;48.432;11.350;2023-08-20T06:42:28;6.57;;;4.78;;
47778;SDS011;33538;48.432;11.350;2023-08-20T06:44:55;6.40;;;4.47;;
47778;SDS011;33538;48.432;11.350;2023-08-20T06:47:22;7.18;;;4.53;;
47778;SDS011;33538;48.432;11.350;2023-08-20T06:49:49;8.48;;;4.30;;
47778;SDS011;33538;48.432;11.350;2023-08-20T06:52:16;10.38;;;4.53;;
47778;SDS011;33538;48.432;11.350;2023-08-20T06:54:44;8.68;;;4.55;;
47778;SDS011;33538;48.432;11.350;2023-08-20T06:57:11;5.13;;;3.85;;
47778;SDS011;33538;48.432;11.350;2023-08-20T06:59:37;14.77;;;4.85;;
47778;SDS011;33538;48.432;11.350;2023-08-20T07:02:05;7.20;;;3.60;;
47778;SDS011;33538;48.432;11.350;2023-08-20T07:04:32;6.38;;;4.03;;
47778;SDS011;33538;48.432;11.350;2023-08-20T07:06:58;8.38;;;4.30;;
47778;SDS011;33538;48.432;11.350;2023-08-20T07:09:25;8.75;;;4.55;;
47778;SDS011;33538;48.432;11.350;2023-08-20T07:11:53;6.20;;;4.40;;
47778;SDS011;33538;48.432;11.350;2023-08-20T07:14:20;6.25;;;4.15;;
47778;SDS011;33538;48.432;11.350;2023-08-20T07:16:47;6.00;;;3.70;;
47778;SDS011;33538;48.432;11.350;2023-08-20T07:19:14;5.75;;;4.10;;
47778;SDS011;33538;48.432;11.350;2023-08-20T07:21:41;6.22;;;4.32;;
47778;SDS011;33538;48.432;11.350;2023-08-20T07:24:08;12.43;;;4.13;;
47778;SDS011;33538;48.432;11.350;2023-08-20T07:26:34;6.35;;;3.88;;
47778;SDS011;33538;48.432;11.350;2023-08-20T07:29:03;6.45;;;4.30;;
47778;SDS011;33538;48.432;11.350;2023-08-20T07:31:30;5.43;;;4.03;;
47778;SDS011;33538;48.432;11.350;2023-08-20T07:33:59;7.85;;;4.28;;
47778;SDS011;33538;48.432;11.350;2023-08-20T07:36:29;6.82;;;4.28;;
47778;SDS011;33538;48.432;11.350;2023-08-20T07:38:56;7.68;;;4.47;;
47778;SDS011;33538;48.432;11.350;2023-08-20T07:41:23;13.65;;;4.63;;
47778;SDS011;33538;48.432;11.350;2023-08-20T07:43:50;5.22;;;4.18;;
47778;SDS011;33538;48.432;11.350;2023-08-20T07:46:18;7.78;;;3.88;;
47778;SDS011;33538;48.432;11.350;2023-08-20T07:48:45;6.57;;;3.97;;
47778;SDS011;33538;48.432;11.350;2023-08-20T07:51:12;6.45;;;3.70;;
47778;SDS011;33538;48.432;11.350;2023-08-20T07:53:39;6.00;;;3.88;;
47778;SDS011;33538;48.432;11.350;2023-08-20T07:56:05;5.20;;;3.47;;
47778;SDS011;33538;48.432;11.350;2023-08-20T07:58:32;8.27;;;3.97;;
47778;SDS011;33538;48.432;11.350;2023-08-20T08:00:59;4.45;;;3.00;;
47778;SDS011;33538;48.432;11.350;2023-08-20T08:03:28;4.55;;;3.33;;
47778;SDS011;33538;48.432;11.350;2023-08-20T08:05:55;4.80;;;3.28;;
47778;SDS011;33538;48.432;11.350;2023-08-20T08:08:22;6.20;;;3.10;;
47778;SDS011;33538;48.432;11.350;2023-08-20T08:10:49;3.70;;;3.10;;
47778;SDS011;33538;48.432;11.350;2023-08-20T08:13:18;6.03;;;3.17;;
47778;SDS011;33538;48.432;11.350;2023-08-20T08:15:46;5.55;;;2.95;;
47778;SDS011;33538;48.432;11.350;2023-08-20T08:18:13;3.88;;;3.05;;
47778;SDS011;33538;48.432;11.350;2023-08-20T08:20:42;4.97;;;3.17;;
47778;SDS011;33538;48.432;11.350;2023-08-20T08:23:08;4.15;;;3.00;;
47778;SDS011;33538;48.432;11.350;2023-08-20T08:25:35;7.32;;;3.15;;
47778;SDS011;33538;48.432;11.350;2023-08-20T08:28:03;3.15;;;2.55;;
47778;SDS011;33538;48.432;11.350;2023-08-20T08:30:30;5.78;;;3.25;;
47778;SDS011;33538;48.432;11.350;2023-08-20T08:32:57;5.60;;;3.10;;
47778;SDS011;33538;48.432;11.350;2023-08-20T08:35:24;7.22;;;3.33;;
47778;SDS011;33538;48.432;11.350;2023-08-20T08:37:52;4.78;;;3.10;;
47778;SDS011;33538;48.432;11.350;2023-08-20T08:40:19;7.93;;;3.45;;
47778;SDS011;33538;48.432;11.350;2023-08-20T08:42:47;6.18;;;3.75;;
47778;SDS011;33538;48.432;11.350;2023-08-20T08:45:15;4.93;;;3.40;;
47778;SDS011;33538;48.432;11.350;2023-08-20T08:47:43;5.50;;;3.20;;
47778;SDS011;33538;48.432;11.350;2023-08-20T08:50:11;6.72;;;2.85;;
47778;SDS011;33538;48.432;11.350;2023-08-20T08:52:38;4.18;;;2.90;;
47778;SDS011;33538;48.432;11.350;2023-08-20T08:55:08;4.18;;;2.97;;
47778;SDS011;33538;48.432;11.350;2023-08-20T08:57:36;7.28;;;3.80;;
47778;SDS011;33538;48.432;11.350;2023-08-20T09:00:03;4.32;;;3.33;;
47778;SDS011;33538;48.432;11.350;2023-08-20T09:02:32;4.53;;;3.10;;
47778;SDS011;33538;48.432;11.350;2023-08-20T09:04:58;5.45;;;3.28;;
47778;SDS011;33538;48.432;11.350;2023-08-20T09:07:26;5.10;;;3.30;;
47778;SDS011;33538;48.432;11.350;2023-08-20T09:09:57;4.82;;;3.47;;
47778;SDS011;33538;48.432;11.350;2023-08-20T09:12:26;4.00;;;3.05;;
47778;SDS011;33538;48.432;11.350;2023-08-20T09:14:53;5.72;;;3.35;;
47778;SDS011;33538;48.432;11.350;2023-08-20T09:17:19;5.95;;;3.25;;
47778;SDS011;33538;48.432;11.350;2023-08-20T09:19:46;7.97;;;4.03;;
47778;SDS011;33538;48.432;11.350;2023-08-20T09:22:13;6.43;;;3.78;;
47778;SDS011;33538;48.432;11.350;2023-08-20T09:24:45;3.10;;;2.78;;
47778;SDS011;33538;48.432;11.350;2023-08-20T09:27:13;4.38;;;3.08;;
47778;SDS011;33538;48.432;11.350;2023-08-20T09:29:45;6.43;;;3.17;;
47778;SDS011;33538;48.432;11.350;2023-08-20T09:32:16;4.32;;;3.10;;
47778;SDS011;33538;48.432;11.350;2023-08-20T09:34:44;3.53;;;2.95;;
47778;SDS011;33538;48.432;11.350;2023-08-20T09:37:11;4.20;;;3.17;;
47778;SDS011;33538;48.432;11.350;2023-08-20T09:39:40;4.63;;;3.22;;
47778;SDS011;33538;48.432;11.350;2023-08-20T09:42:07;3.78;;;3.05;;
47778;SDS011;33538;48.432;11.350;2023-08-20T09:44:35;4.25;;;3.10;;
47778;SDS011;33538;48.432;11.350;2023-08-20T09:47:05;3.83;;;2.70;;
47778;SDS011;33538;48.432;11.350;2023-08-20T09:49:35;3.15;;;2.85;;
47778;SDS011;33538;48.432;11.350;2023-08-20T09:52:04;5.72;;;3.30;;
47778;SDS011;33538;48.432;11.350;2023-08-20T09:54:34;6.38;;;3.13;;
47778;SDS011;33538;48.432;11.350;2023-08-20T09:57:10;4.88;;;2.95;;
47778;SDS011;33538;48.432;11.350;2023-08-20T09:59:45;5.00;;;3.25;;
47778;SDS011;33538;48.432;11.350;2023-08-20T10:02:15;3.92;;;2.95;;
47778;SDS011;33538;48.432;11.350;2023-08-20T10:04:43;6.22;;;3.80;;
47778;SDS011;33538;48.432;11.350;2023-08-20T10:07:10;6.88;;;3.60;;
47778;SDS011;33538;48.432;11.350;2023-08-20T10:09:38;3.53;;;3.22;;
47778;SDS011;33538;48.432;11.350;2023-08-20T10:12:10;6.68;;;3.15;;
47778;SDS011;33538;48.432;11.350;2023-08-20T10:14:37;5.30;;;3.55;;
47778;SDS011;33538;48.432;11.350;2023-08-20T10:17:06;5.18;;;3.28;;
47778;SDS011;33538;48.432;11.350;2023-08-20T10:19:34;3.55;;;3.15;;
47778;SDS011;33538;48.432;11.350;2023-08-20T10:22:02;3.92;;;3.40;;
47778;SDS011;33538;48.432;11.350;2023-08-20T10:24:39;3.70;;;3.30;;
47778;SDS011;33538;48.432;11.350;2023-08-20T10:27:07;4.55;;;3.45;;
47778;SDS011;33538;48.432;11.350;2023-08-20T10:29:34;4.93;;;3.20;;
47778;SDS011;33538;48.432;11.350;2023-08-20T10:32:03;4.97;;;3.33;;
47778;SDS011;33538;48.432;11.350;2023-08-20T10:34:31;5.05;;;2.92;;
47778;SDS011;33538;48.432;11.350;2023-08-20T10:37:02;4.20;;;3.20;;
47778;SDS011;33538;48.432;11.350;2023-08-20T10:39:29;5.72;;;3.08;;
47778;SDS011;33538;48.432;11.350;2023-08-20T10:44:56;5.00;;;3.22;;
47778;SDS011;33538;48.432;11.350;2023-08-20T10:47:23;5.25;;;3.33;;
47778;SDS011;33538;48.432;11.350;2023-08-20T10:49:50;12.27;;;3.60;;
47778;SDS011;33538;48.432;11.350;2023-08-20T10:52:19;5.68;;;3.30;;
47778;SDS011;33538;48.432;11.350;2023-08-20T10:54:49;4.55;;;3.10;;
47778;SDS011;33538;48.432;11.350;2023-08-20T10:57:16;3.42;;;3.03;;
47778;SDS011;33538;48.432;11.350;2023-08-20T10:59:43;3.85;;;2.65;;
47778;SDS011;33538;48.432;11.350;2023-08-20T11:02:11;3.92;;;3.47;;
47778;SDS011;33538;48.432;11.350;2023-08-20T11:04:41;4.63;;;3.00;;
47778;SDS011;33538;48.432;11.350;2023-08-20T11:07:08;5.75;;;3.25;;
47778;SDS011;33538;48.432;11.350;2023-08-20T11:09:36;3.75;;;2.67;;
47778;SDS011;33538;48.432;11.350;2023-08-20T11:12:04;3.67;;;2.90;;
47778;SDS011;33538;48.432;11.350;2023-08-20T11:14:31;3.95;;;2.97;;
47778;SDS011;33538;48.432;11.350;2023-08-20T11:16:58;3.50;;;2.60;;
47778;SDS011;33538;48.432;11.350;2023-08-20T11:19:25;4.60;;;3.05;;
47778;SDS011;33538;48.432;11.350;2023-08-20T11:21:52;5.43;;;3.55;;
47778;SDS011;33538;48.432;11.350;2023-08-20T11:24:18;26.20;;;6.95;;
47778;SDS011;33538;48.432;11.350;2023-08-20T11:26:47;5.03;;;3.05;;
47778;SDS011;33538;48.432;11.350;2023-08-20T11:29:15;8.70;;;3.70;;
47778;SDS011;33538;48.432;11.350;2023-08-20T11:31:42;9.65;;;3.78;;
47778;SDS011;33538;48.432;11.350;2023-08-20T11:34:11;6.93;;;3.60;;
47778;SDS011;33538;48.432;11.350;2023-08-20T11:36:38;4.45;;;3.10;;
47778;SDS011;33538;48.432;11.350;2023-08-20T11:39:05;5.30;;;3.15;;
47778;SDS011;33538;48.432;11.350;2023-08-20T11:41:35;4.05;;;3.03;;
47778;SDS011;33538;48.432;11.350;2023-08-20T11:44:04;3.10;;;2.63;;
47778;SDS011;33538;48.432;11.350;2023-08-20T11:46:31;6.78;;;3.42;;
47778;SDS011;33538;48.432;11.350;2023-08-20T11:48:59;4.10;;;3.20;;
47778;SDS011;33538;48.432;11.350;2023-08-20T11:51:26;3.60;;;2.70;;
47778;SDS011;33538;48.432;11.350;2023-08-20T11:53:53;3.60;;;2.88;;
47778;SDS011;33538;48.432;11.350;2023-08-20T11:56:21;4.25;;;3.05;;
47778;SDS011;33538;48.432;11.350;2023-08-20T11:58:49;4.13;;;2.60;;
47778;SDS011;33538;48.432;11.350;2023-08-20T12:01:18;2.95;;;2.65;;
47778;SDS011;33538;48.432;11.350;2023-08-20T12:03:45;5.00;;;2.85;;
47778;SDS011;33538;48.432;11.350;2023-08-20T12:06:17;4.10;;;2.80;;
47778;SDS011;33538;48.432;11.350;2023-08-20T12:08:44;5.63;;;2.38;;
47778;SDS011;33538;48.432;11.350;2023-08-20T12:11:11;3.72;;;2.92;;
47778;SDS011;33538;48.432;11.350;2023-08-20T12:13:39;5.72;;;3.00;;
47778;SDS011;33538;48.432;11.350;2023-08-20T12:16:06;3.42;;;2.80;;
47778;SDS011;33538;48.432;11.350;2023-08-20T12:18:34;3.85;;;2.50;;
47778;SDS011;33538;48.432;11.350;2023-08-20T12:21:00;4.63;;;2.47;;
47778;SDS011;33538;48.432;11.350;2023-08-20T12:23:27;3.08;;;2.08;;
47778;SDS011;33538;48.432;11.350;2023-08-20T12:25:54;5.72;;;2.80;;
47778;SDS011;33538;48.432;11.350;2023-08-20T12:28:21;4.43;;;2.88;;
47778;SDS011;33538;48.432;11.350;2023-08-20T12:30:48;3.95;;;2.75;;
47778;SDS011;33538;48.432;11.350;2023-08-20T12:33:14;5.47;;;3.10;;
47778;SDS011;33538;48.432;11.350;2023-08-20T12:35:43;6.22;;;2.90;;
47778;SDS011;33538;48.432;11.350;2023-08-20T12:38:09;4.18;;;2.60;;
47778;SDS011;33538;48.432;11.350;2023-08-20T12:40:36;3.38;;;2.67;;
47778;SDS011;33538;48.432;11.350;2023-08-20T12:43:03;3.00;;;2.25;;
47778;SDS011;33538;48.432;11.350;2023-08-20T12:45:30;3.92;;;3.03;;
47778;SDS011;33538;48.432;11.350;2023-08-20T12:47:57;4.97;;;2.55;;
47778;SDS011;33538;48.432;11.350;2023-08-20T12:50:27;3.50;;;2.55;;
47778;SDS011;33538;48.432;11.350;2023-08-20T12:52:55;5.43;;;2.63;;
47778;SDS011;33538;48.432;11.350;2023-08-20T12:55:22;5.65;;;2.65;;
47778;SDS011;33538;48.432;11.350;2023-08-20T12:57:52;3.72;;;2.65;;
47778;SDS011;33538;48.432;11.350;2023-08-20T13:00:20;3.38;;;2.50;;
47778;SDS011;33538;48.432;11.350;2023-08-20T13:02:47;4.47;;;2.70;;
47778;SDS011;33538;48.432;11.350;2023-08-20T13:05:15;5.40;;;2.80;;
47778;SDS011;33538;48.432;11.350;2023-08-20T13:07:42;3.97;;;2.50;;
47778;SDS011;33538;48.432;11.350;2023-08-20T13:10:11;6.57;;;2.85;;
47778;SDS011;33538;48.432;11.350;2023-08-20T13:12:39;3.95;;;2.75;;
47778;SDS011;33538;48.432;11.350;2023-08-20T13:15:07;5.30;;;2.65;;
47778;SDS011;33538;48.432;11.350;2023-08-20T13:17:36;4.10;;;2.65;;
47778;SDS011;33538;48.432;11.350;2023-08-20T13:20:04;4.72;;;2.40;;
47778;SDS011;33538;48.432;11.350;2023-08-20T13:22:31;3.72;;;2.70;;
47778;SDS011;33538;48.432;11.350;2023-08-20T13:24:58;2.90;;;2.38;;
47778;SDS011;33538;48.432;11.350;2023-08-20T13:27:26;3.35;;;2.45;;
47778;SDS011;33538;48.432;11.350;2023-08-20T13:29:53;3.38;;;2.63;;
47778;SDS011;33538;48.432;11.350;2023-08-20T13:32:20;3.63;;;2.78;;
47778;SDS011;33538;48.432;11.350;2023-08-20T13:34:47;3.75;;;2.40;;
47778;SDS011;33538;48.432;11.350;2023-08-20T13:37:13;7.22;;;3.38;;
47778;SDS011;33538;48.432;11.350;2023-08-20T13:39:40;4.30;;;2.33;;
47778;SDS011;33538;48.432;11.350;2023-08-20T13:42:07;3.65;;;2.40;;
47778;SDS011;33538;48.432;11.350;2023-08-20T13:44:35;5.68;;;3.20;;
47778;SDS011;33538;48.432;11.350;2023-08-20T13:47:02;3.85;;;2.65;;
47778;SDS011;33538;48.432;11.350;2023-08-20T13:49:29;4.18;;;2.45;;
47778;SDS011;33538;48.432;11.350;2023-08-20T13:51:55;3.28;;;2.38;;
47778;SDS011;33538;48.432;11.350;2023-08-20T13:54:22;3.63;;;2.42;;
47778;SDS011;33538;48.432;11.350;2023-08-20T13:56:49;4.47;;;2.30;;
47778;SDS011;33538;48.432;11.350;2023-08-20T13:59:16;3.55;;;2.58;;
47778;SDS011;33538;48.432;11.350;2023-08-20T14:01:44;5.10;;;2.58;;
47778;SDS011;33538;48.432;11.350;2023-08-20T14:04:11;3.13;;;2.70;;
47778;SDS011;33538;48.432;11.350;2023-08-20T14:06:38;3.08;;;2.15;;
47778;SDS011;33538;48.432;11.350;2023-08-20T14:09:04;2.33;;;2.13;;
47778;SDS011;33538;48.432;11.350;2023-08-20T14:11:31;3.15;;;2.30;;
47778;SDS011;33538;48.432;11.350;2023-08-20T14:13:58;4.25;;;2.67;;
47778;SDS011;33538;48.432;11.350;2023-08-20T14:16:25;5.65;;;2.92;;
47778;SDS011;33538;48.432;11.350;2023-08-20T14:18:53;4.55;;;2.25;;
47778;SDS011;33538;48.432;11.350;2023-08-20T14:21:20;3.60;;;2.88;;
47778;SDS011;33538;48.432;11.350;2023-08-20T14:23:46;4.45;;;2.50;;
47778;SDS011;33538;48.432;11.350;2023-08-20T14:26:13;4.50;;;2.80;;
47778;SDS011;33538;48.432;11.350;2023-08-20T14:28:40;4.10;;;2.25;;
47778;SDS011;33538;48.432;11.350;2023-08-20T14:31:07;4.03;;;2.58;;
47778;SDS011;33538;48.432;11.350;2023-08-20T14:33:34;4.65;;;2.53;;
47778;SDS011;33538;48.432;11.350;2023-08-20T14:36:02;3.17;;;2.45;;
47778;SDS011;33538;48.432;11.350;2023-08-20T14:38:29;3.70;;;2.63;;
47778;SDS011;33538;48.432;11.350;2023-08-20T14:40:58;7.82;;;2.63;;